Time;durP1;ratioP1;P1;durP2;ratioP2;P2;SDS_P1;SDS_P2;PMS_P1;PMS_P2;Temp;Humidity;BMP_temperature;BMP_pressure;BME280_temperature;BME280_humidity;BME280_pressure;Samples;Min_cycle;Max_cycle;Signal;HPM_P1;HPM_P2
2023/12/20 00:00:55;;;;;;;11.48;10.98;;;;;;;;;;5074034;28;20028;-59
2023/12/20 00:03:20;;;;;;;11.20;10.70;;;;;;;;;;5067934;28;20027;-58
2023/12/20 00:05:46;;;;;;;11.02;10.52;;;;;;;;;;5073594;28;20039;-58
2023/12/20 00:08:11;;;;;;;11.93;11.32;;;;;;;;;;5073046;28;20436;-57
2023/12/20 00:10:36;;;;;;;11.88;11.27;;;;;;;;;;5070234;28;20016;-58
2023/12/20 00:13:02;;;;;;;11.77;11.18;;;;;;;;;;5074665;28;20383;-58
2023/12/20 00:15:27;;;;;;;11.98;11.38;;;;;;;;;;5074275;28;20048;-59
2023/12/20 00:17:52;;;;;;;11.70;11.10;;;;;;;;;;5075572;28;20036;-58
2023/12/20 00:20:18;;;;;;;12.07;11.48;;;;;;;;;;5076426;28;20036;-58
2023/12/20 00:22:43;;;;;;;11.50;11.00;;;;;;;;;;5078766;28;20016;-59
2023/12/20 00:25:08;;;;;;;11.27;10.77;;;;;;;;;;5074231;28;20043;-59
2023/12/20 00:27:33;;;;;;;11.68;11.07;;;;;;;;;;5070703;28;20081;-59
2023/12/20 00:29:59;;;;;;;11.93;11.32;;;;;;;;;;5073032;28;20032;-59
2023/12/20 00:32:25;;;;;;;11.65;11.10;;;;;;;;;;5073265;28;20020;-60
2023/12/20 00:34:50;;;;;;;11.25;10.75;;;;;;;;;;5072847;28;20023;-60
2023/12/20 00:37:16;;;;;;;11.85;11.25;;;;;;;;;;5070629;28;20031;-60
2023/12/20 00:39:41;;;;;;;11.82;11.23;;;;;;;;;;5073476;28;20017;-59
2023/12/20 00:42:07;;;;;;;11.40;10.90;;;;;;;;;;5073677;28;20040;-57
2023/12/20 00:44:32;;;;;;;11.80;11.20;;;;;;;;;;5071904;28;20038;-59
2023/12/20 00:46:57;;;;;;;11.48;10.93;;;;;;;;;;5083055;28;20421;-59
2023/12/20 00:49:23;;;;;;;11.60;11.02;;;;;;;;;;5071395;28;20021;-57
2023/12/20 00:51:50;;;;;;;11.25;10.75;;;;;;;;;;5076314;28;20044;-60
2023/12/20 00:54:15;;;;;;;11.43;10.93;;;;;;;;;;5073209;28;20027;-58
2023/12/20 00:56:41;;;;;;;11.32;10.82;;;;;;;;;;5070241;28;20020;-58
2023/12/20 00:59:06;;;;;;;11.23;10.73;;;;;;;;;;5072909;28;20031;-60
2023/12/20 01:01:33;;;;;;;11.20;10.70;;;;;;;;;;5071617;28;20038;-60
2023/12/20 01:03:58;;;;;;;12.05;11.45;;;;;;;;;;5069041;28;20035;-58
2023/12/20 01:06:23;;;;;;;11.95;11.35;;;;;;;;;;5069682;28;20032;-59
2023/12/20 01:08:49;;;;;;;11.32;10.82;;;;;;;;;;5078983;28;20036;-59
2023/12/20 01:11:14;;;;;;;11.85;11.25;;;;;;;;;;5072657;28;20388;-59
2023/12/20 01:13:39;;;;;;;12.20;11.60;;;;;;;;;;5073795;28;20071;-58
2023/12/20 01:16:05;;;;;;;11.60;11.10;;;;;;;;;;5070765;28;20408;-59
2023/12/20 01:18:31;;;;;;;11.65;11.05;;;;;;;;;;5068942;28;20057;-58
2023/12/20 01:20:56;;;;;;;12.00;11.40;;;;;;;;;;5075795;28;20028;-59
2023/12/20 01:23:21;;;;;;;11.35;10.85;;;;;;;;;;5074093;28;20030;-59
2023/12/20 01:25:47;;;;;;;11.73;11.13;;;;;;;;;;5072479;28;20059;-60
2023/12/20 01:28:13;;;;;;;11.20;10.70;;;;;;;;;;5072082;28;20056;-60
2023/12/20 01:30:38;;;;;;;11.20;10.70;;;;;;;;;;5075778;28;20079;-58
2023/12/20 01:33:03;;;;;;;11.98;11.38;;;;;;;;;;5072249;28;20024;-59
2023/12/20 01:35:29;;;;;;;12.75;12.05;;;;;;;;;;5066483;28;20028;-59
2023/12/20 01:37:56;;;;;;;11.77;11.18;;;;;;;;;;5070637;28;20024;-58
2023/12/20 01:40:22;;;;;;;11.80;11.20;;;;;;;;;;5069140;28;20096;-59
2023/12/20 01:42:47;;;;;;;11.95;11.35;;;;;;;;;;5077909;28;20459;-60
2023/12/20 01:45:12;;;;;;;11.80;11.20;;;;;;;;;;5072367;28;20036;-60
2023/12/20 01:47:38;;;;;;;11.88;11.27;;;;;;;;;;5071302;28;20025;-59
2023/12/20 01:50:03;;;;;;;11.93;11.32;;;;;;;;;;5075305;28;20104;-60
2023/12/20 01:52:29;;;;;;;11.52;10.93;;;;;;;;;;5077531;28;20017;-60
2023/12/20 01:55:00;;;;;;;11.18;10.68;;;;;;;;;;5074224;28;20043;-59
2023/12/20 01:57:26;;;;;;;11.52;10.95;;;;;;;;;;5071854;28;20028;-59
2023/12/20 01:59:51;;;;;;;11.30;10.80;;;;;;;;;;5071977;28;20490;-59
2023/12/20 02:02:17;;;;;;;11.10;10.60;;;;;;;;;;5070686;28;20028;-59
2023/12/20 02:04:43;;;;;;;12.00;11.40;;;;;;;;;;5069447;28;20037;-59
2023/12/20 02:07:08;;;;;;;11.45;10.90;;;;;;;;;;5071463;28;20523;-59
2023/12/20 02:09:34;;;;;;;11.88;11.27;;;;;;;;;;5070628;28;20028;-59
2023/12/20 02:12:00;;;;;;;11.35;10.85;;;;;;;;;;5069670;28;20545;-59
2023/12/20 02:14:25;;;;;;;11.45;10.88;;;;;;;;;;5071171;28;20036;-58
2023/12/20 02:16:51;;;;;;;11.10;10.60;;;;;;;;;;5070524;28;20044;-60
2023/12/20 02:19:17;;;;;;;12.25;11.65;;;;;;;;;;5071188;28;20024;-59
2023/12/20 02:21:42;;;;;;;11.65;11.05;;;;;;;;;;5059727;28;20090;-59
2023/12/20 02:24:08;;;;;;;11.30;10.80;;;;;;;;;;5070951;28;20483;-60
2023/12/20 02:26:33;;;;;;;11.20;10.70;;;;;;;;;;5069227;28;20028;-60
2023/12/20 02:28:59;;;;;;;11.85;11.25;;;;;;;;;;5069255;28;20033;-59
2023/12/20 02:31:24;;;;;;;11.50;11.00;;;;;;;;;;5069244;28;20021;-62
2023/12/20 02:33:50;;;;;;;12.27;11.68;;;;;;;;;;5072239;28;20005;-64
2023/12/20 02:36:15;;;;;;;12.57;11.88;;;;;;;;;;5072601;28;20024;-59
2023/12/20 02:38:40;;;;;;;11.80;11.20;;;;;;;;;;5078782;28;20396;-61
2023/12/20 02:41:06;;;;;;;11.50;11.00;;;;;;;;;;5068497;28;20101;-60
2023/12/20 02:43:31;;;;;;;11.50;11.00;;;;;;;;;;5073375;28;20036;-58
2023/12/20 02:45:56;;;;;;;12.00;11.40;;;;;;;;;;5064566;28;20029;-59
2023/12/20 02:48:22;;;;;;;11.10;10.60;;;;;;;;;;5073338;28;20012;-60
2023/12/20 02:50:48;;;;;;;11.93;11.32;;;;;;;;;;5077173;28;20437;-59
2023/12/20 02:53:14;;;;;;;11.15;10.65;;;;;;;;;;5073399;28;20024;-60
2023/12/20 02:55:39;;;;;;;11.55;11.02;;;;;;;;;;5071692;28;20452;-60
2023/12/20 02:58:05;;;;;;;11.40;10.90;;;;;;;;;;5072040;28;20024;-59
2023/12/20 03:00:30;;;;;;;11.52;11.00;;;;;;;;;;5074064;28;20097;-59
2023/12/20 03:02:55;;;;;;;12.20;11.60;;;;;;;;;;5069677;28;20401;-59
2023/12/20 03:05:21;;;;;;;12.23;11.63;;;;;;;;;;5081753;28;20089;-60
2023/12/20 03:07:46;;;;;;;12.18;11.57;;;;;;;;;;5071844;28;20054;-58
2023/12/20 03:10:11;;;;;;;11.40;10.90;;;;;;;;;;5070522;28;20040;-59
2023/12/20 03:12:37;;;;;;;12.20;11.60;;;;;;;;;;5070827;28;20027;-58
2023/12/20 03:15:02;;;;;;;11.40;10.90;;;;;;;;;;5068465;28;20027;-60
2023/12/20 03:17:28;;;;;;;11.25;10.75;;;;;;;;;;5064670;28;20225;-60
2023/12/20 03:19:53;;;;;;;11.77;11.18;;;;;;;;;;5066889;28;20464;-60
2023/12/20 03:22:18;;;;;;;11.45;10.95;;;;;;;;;;5071140;28;20107;-58
2023/12/20 03:24:43;;;;;;;11.93;11.32;;;;;;;;;;5073400;28;20024;-60
2023/12/20 03:27:09;;;;;;;11.85;11.25;;;;;;;;;;5069856;28;20566;-60
2023/12/20 03:29:34;;;;;;;12.40;11.80;;;;;;;;;;5070266;28;20467;-59
2023/12/20 03:32:00;;;;;;;11.85;11.25;;;;;;;;;;5070994;28;20021;-59
2023/12/20 03:34:26;;;;;;;11.38;10.88;;;;;;;;;;5069912;28;20507;-60
2023/12/20 03:36:52;;;;;;;12.30;11.70;;;;;;;;;;5074685;28;20499;-58
2023/12/20 03:39:19;;;;;;;11.68;11.07;;;;;;;;;;5071617;28;20029;-59
2023/12/20 03:41:45;;;;;;;11.88;11.27;;;;;;;;;;5072611;28;20024;-59
2023/12/20 03:44:10;;;;;;;11.90;11.30;;;;;;;;;;5074422;28;20519;-60
2023/12/20 03:46:35;;;;;;;11.40;10.90;;;;;;;;;;5070428;28;20028;-61
2023/12/20 03:49:01;;;;;;;11.40;10.90;;;;;;;;;;5068998;28;20025;-59
2023/12/20 03:51:26;;;;;;;12.23;11.60;;;;;;;;;;5070481;28;20021;-60
2023/12/20 03:53:51;;;;;;;11.73;11.13;;;;;;;;;;5070693;28;20032;-60
2023/12/20 03:56:17;;;;;;;11.40;10.90;;;;;;;;;;5067983;28;20057;-59
2023/12/20 03:58:42;;;;;;;12.18;11.57;;;;;;;;;;5070112;28;20029;-59
2023/12/20 04:01:14;;;;;;;11.50;10.95;;;;;;;;;;5078926;28;20020;-59
2023/12/20 04:03:40;;;;;;;11.38;10.88;;;;;;;;;;5072835;28;20048;-59
2023/12/20 04:06:05;;;;;;;12.18;11.57;;;;;;;;;;5067819;28;20660;-61
2023/12/20 04:08:31;;;;;;;11.80;11.20;;;;;;;;;;5067334;28;20032;-59
2023/12/20 04:10:57;;;;;;;11.10;10.60;;;;;;;;;;5070367;28;20487;-59
2023/12/20 04:13:22;;;;;;;11.10;10.60;;;;;;;;;;5073683;28;20120;-60
2023/12/20 04:15:50;;;;;;;11.13;10.63;;;;;;;;;;5073576;28;20123;-61
2023/12/20 04:18:15;;;;;;;11.48;10.98;;;;;;;;;;5070094;28;20036;-58
2023/12/20 04:20:40;;;;;;;11.20;10.70;;;;;;;;;;5079739;28;20024;-59
2023/12/20 04:23:06;;;;;;;11.20;10.70;;;;;;;;;;5073267;28;20032;-61
2023/12/20 04:25:31;;;;;;;11.65;11.05;;;;;;;;;;5076680;28;20077;-60
2023/12/20 04:27:56;;;;;;;11.90;11.30;;;;;;;;;;5070546;28;20074;-60
2023/12/20 04:30:22;;;;;;;12.50;11.80;;;;;;;;;;5071324;28;20142;-61
2023/12/20 04:32:47;;;;;;;11.82;11.23;;;;;;;;;;5073055;28;20103;-59
2023/12/20 04:35:12;;;;;;;12.20;11.60;;;;;;;;;;5072039;28;20476;-60
2023/12/20 04:37:38;;;;;;;12.48;11.82;;;;;;;;;;5072834;28;20139;-60
2023/12/20 04:40:05;;;;;;;11.30;10.80;;;;;;;;;;5072899;28;20028;-59
2023/12/20 04:42:30;;;;;;;11.27;10.77;;;;;;;;;;5072501;28;20024;-61
2023/12/20 04:44:55;;;;;;;11.48;10.98;;;;;;;;;;5072391;28;20047;-58
2023/12/20 04:47:21;;;;;;;11.30;10.77;;;;;;;;;;5069480;28;20052;-59
2023/12/20 04:49:47;;;;;;;11.77;11.18;;;;;;;;;;5070636;28;20378;-60
2023/12/20 04:52:12;;;;;;;12.70;12.00;;;;;;;;;;5070653;28;20020;-59
2023/12/20 04:54:37;;;;;;;11.90;11.30;;;;;;;;;;5066579;28;20024;-59
2023/12/20 04:57:03;;;;;;;11.77;11.18;;;;;;;;;;5072008;28;20019;-60
2023/12/20 04:59:28;;;;;;;11.63;11.02;;;;;;;;;;5072861;28;20020;-60
2023/12/20 05:01:54;;;;;;;11.60;11.00;;;;;;;;;;5069950;28;20090;-60
2023/12/20 05:04:19;;;;;;;11.70;11.10;;;;;;;;;;5075743;28;20020;-59
2023/12/20 05:06:44;;;;;;;12.38;11.68;;;;;;;;;;5070678;28;20028;-60
2023/12/20 05:09:10;;;;;;;11.95;11.35;;;;;;;;;;5072256;28;20025;-62
2023/12/20 05:11:35;;;;;;;11.32;10.82;;;;;;;;;;5076737;28;20021;-60
2023/12/20 05:14:00;;;;;;;11.77;11.18;;;;;;;;;;5074278;28;20055;-59
2023/12/20 05:16:26;;;;;;;12.50;11.80;;;;;;;;;;5072031;28;20040;-61
2023/12/20 05:18:52;;;;;;;11.98;11.38;;;;;;;;;;5078354;28;20052;-61
2023/12/20 05:21:17;;;;;;;12.63;11.93;;;;;;;;;;5067044;28;20028;-59
2023/12/20 05:23:43;;;;;;;13.30;12.60;;;;;;;;;;5069960;28;20017;-61
2023/12/20 05:26:08;;;;;;;11.75;11.15;;;;;;;;;;5064078;28;20434;-61
2023/12/20 05:28:33;;;;;;;11.80;11.20;;;;;;;;;;5074579;28;20020;-61
2023/12/20 05:30:59;;;;;;;11.85;11.25;;;;;;;;;;5072467;28;20032;-60
2023/12/20 05:33:24;;;;;;;11.27;10.77;;;;;;;;;;5076238;28;20415;-58
2023/12/20 05:35:50;;;;;;;13.32;12.57;;;;;;;;;;5070704;28;20070;-59
2023/12/20 05:38:15;;;;;;;11.02;10.52;;;;;;;;;;5071801;28;20518;-60
2023/12/20 05:40:40;;;;;;;11.45;10.90;;;;;;;;;;5070182;28;20120;-60
2023/12/20 05:43:06;;;;;;;11.75;11.15;;;;;;;;;;5068430;28;20163;-58
2023/12/20 05:45:31;;;;;;;12.20;11.60;;;;;;;;;;5071441;28;20021;-60
2023/12/20 05:47:57;;;;;;;12.27;11.68;;;;;;;;;;5071872;28;20483;-58
2023/12/20 05:50:22;;;;;;;12.07;11.48;;;;;;;;;;5078333;28;20032;-59
2023/12/20 05:52:47;;;;;;;12.15;11.55;;;;;;;;;;5068925;28;20040;-60
2023/12/20 05:55:13;;;;;;;11.45;10.88;;;;;;;;;;5077528;28;20025;-58
2023/12/20 05:57:38;;;;;;;11.30;10.80;;;;;;;;;;5069025;28;20430;-60
2023/12/20 06:00:04;;;;;;;11.20;10.70;;;;;;;;;;5070892;28;20044;-60
2023/12/20 06:02:29;;;;;;;11.43;10.90;;;;;;;;;;5071781;28;20435;-60
2023/12/20 06:04:54;;;;;;;11.60;11.00;;;;;;;;;;5074656;28;20029;-60
2023/12/20 06:07:20;;;;;;;12.63;11.93;;;;;;;;;;5071244;28;20032;-64
2023/12/20 06:09:45;;;;;;;13.00;12.30;;;;;;;;;;5071279;28;20028;-61
2023/12/20 06:12:11;;;;;;;11.52;10.93;;;;;;;;;;5070622;28;20024;-61
2023/12/20 06:14:36;;;;;;;12.23;11.52;;;;;;;;;;5070302;28;20013;-60
2023/12/20 06:17:02;;;;;;;11.55;10.95;;;;;;;;;;5068319;28;20053;-60
2023/12/20 06:19:27;;;;;;;11.32;10.73;;;;;;;;;;5071558;28;20392;-60
2023/12/20 06:21:53;;;;;;;10.70;10.20;;;;;;;;;;5070815;28;20028;-59
2023/12/20 06:24:18;;;;;;;10.80;10.30;;;;;;;;;;5073375;28;20034;-57
2023/12/20 06:26:44;;;;;;;10.30;9.80;;;;;;;;;;5071876;28;20065;-59
2023/12/20 06:29:09;;;;;;;10.50;10.00;;;;;;;;;;5072142;28;20033;-59
2023/12/20 06:31:34;;;;;;;11.35;10.75;;;;;;;;;;5067969;28;20020;-60
2023/12/20 06:34:00;;;;;;;11.30;10.80;;;;;;;;;;5067011;28;20016;-59
2023/12/20 06:36:26;;;;;;;11.43;10.90;;;;;;;;;;5071462;28;20012;-61
2023/12/20 06:38:51;;;;;;;11.90;11.30;;;;;;;;;;5072904;28;20506;-61
2023/12/20 06:41:17;;;;;;;11.57;11.05;;;;;;;;;;5072284;28;20032;-59
2023/12/20 06:43:42;;;;;;;11.75;11.18;;;;;;;;;;5071443;28;20077;-56
2023/12/20 06:46:08;;;;;;;11.65;11.15;;;;;;;;;;5068809;28;20073;-61
2023/12/20 06:48:33;;;;;;;12.05;11.45;;;;;;;;;;5072628;28;20035;-61
2023/12/20 06:51:00;;;;;;;12.07;11.50;;;;;;;;;;5069395;28;20039;-61
2023/12/20 06:53:25;;;;;;;12.20;11.60;;;;;;;;;;5068137;28;20029;-61
2023/12/20 06:55:50;;;;;;;12.60;12.00;;;;;;;;;;5065469;28;20020;-61
2023/12/20 06:58:16;;;;;;;12.77;12.18;;;;;;;;;;5067746;28;20472;-61
2023/12/20 07:00:41;;;;;;;12.55;11.95;;;;;;;;;;5061798;28;20043;-62
2023/12/20 07:03:07;;;;;;;12.70;12.10;;;;;;;;;;5071208;28;20029;-61
2023/12/20 07:05:33;;;;;;;13.13;12.52;;;;;;;;;;5067127;28;20020;-60
2023/12/20 07:07:58;;;;;;;12.90;12.30;;;;;;;;;;5068858;28;20032;-60
2023/12/20 07:10:24;;;;;;;12.60;12.00;;;;;;;;;;5070935;28;20047;-60
2023/12/20 07:12:50;;;;;;;13.15;12.55;;;;;;;;;;5069296;28;20097;-60
2023/12/20 07:15:16;;;;;;;12.70;12.10;;;;;;;;;;5071324;28;20035;-61
2023/12/20 07:17:42;;;;;;;12.57;11.98;;;;;;;;;;5068861;28;20028;-60
2023/12/20 07:20:10;;;;;;;12.73;12.13;;;;;;;;;;5068657;28;20130;-62
2023/12/20 07:22:36;;;;;;;13.23;12.63;;;;;;;;;;5068555;28;20060;-61
2023/12/20 07:25:01;;;;;;;12.80;12.20;;;;;;;;;;5068458;28;20056;-62
2023/12/20 07:27:26;;;;;;;13.65;13.02;;;;;;;;;;5057528;28;20032;-61
2023/12/20 07:29:52;;;;;;;13.18;12.57;;;;;;;;;;5069783;28;20021;-62
2023/12/20 07:32:18;;;;;;;12.85;12.25;;;;;;;;;;5069960;28;20480;-62
2023/12/20 07:34:43;;;;;;;12.68;12.07;;;;;;;;;;5071592;28;20047;-61
2023/12/20 07:37:10;;;;;;;12.55;11.95;;;;;;;;;;5072845;28;20158;-60
2023/12/20 07:39:35;;;;;;;12.95;12.35;;;;;;;;;;5077170;28;20062;-62
2023/12/20 07:42:01;;;;;;;13.55;12.95;;;;;;;;;;5069444;28;20134;-62
2023/12/20 07:44:26;;;;;;;12.52;11.93;;;;;;;;;;5071964;28;20082;-61
2023/12/20 07:46:51;;;;;;;13.18;12.57;;;;;;;;;;5076577;28;20573;-61
2023/12/20 07:49:17;;;;;;;13.20;12.60;;;;;;;;;;5076897;28;20021;-62
2023/12/20 07:51:42;;;;;;;13.13;12.52;;;;;;;;;;5076729;28;20466;-62
2023/12/20 07:54:08;;;;;;;12.70;12.10;;;;;;;;;;5073803;28;20017;-62
2023/12/20 07:56:33;;;;;;;13.40;12.80;;;;;;;;;;5068296;28;20566;-60
2023/12/20 07:59:01;;;;;;;13.40;12.80;;;;;;;;;;5067784;28;20024;-61
2023/12/20 08:01:26;;;;;;;13.30;12.70;;;;;;;;;;5072847;28;20539;-60
2023/12/20 08:03:52;;;;;;;13.10;12.50;;;;;;;;;;5064609;28;20071;-61
2023/12/20 08:06:17;;;;;;;14.73;14.02;;;;;;;;;;5056368;28;20024;-61
2023/12/20 08:08:43;;;;;;;13.57;12.98;;;;;;;;;;5059233;28;20067;-60
2023/12/20 08:11:08;;;;;;;13.48;12.88;;;;;;;;;;5071067;28;20351;-61
2023/12/20 08:13:33;;;;;;;13.65;13.05;;;;;;;;;;5069124;28;20025;-61
2023/12/20 08:15:59;;;;;;;14.02;13.43;;;;;;;;;;5065324;28;20503;-60
2023/12/20 08:18:24;;;;;;;13.35;12.75;;;;;;;;;;5070853;28;20145;-60
2023/12/20 08:20:49;;;;;;;13.77;13.18;;;;;;;;;;5063392;28;20589;-60
2023/12/20 08:23:15;;;;;;;13.38;12.77;;;;;;;;;;5063793;28;20495;-60
2023/12/20 08:25:40;;;;;;;13.68;13.07;;;;;;;;;;5062344;28;20222;-60
2023/12/20 08:28:06;;;;;;;13.98;13.38;;;;;;;;;;5064871;28;20028;-60
2023/12/20 08:30:32;;;;;;;15.65;14.93;;;;;;;;;;5066689;28;20025;-60
2023/12/20 08:32:59;;;;;;;14.18;13.48;;;;;;;;;;5060615;28;20142;-66
2023/12/20 08:35:25;;;;;;;14.77;14.07;;;;;;;;;;5064712;28;20028;-65
2023/12/20 08:37:50;;;;;;;14.60;13.90;;;;;;;;;;5056558;28;20086;-64
2023/12/20 08:40:15;;;;;;;14.15;13.45;;;;;;;;;;5071300;28;20116;-64
2023/12/20 08:42:41;;;;;;;13.65;13.05;;;;;;;;;;5070007;28;20055;-63
2023/12/20 08:45:06;;;;;;;13.35;12.75;;;;;;;;;;5064891;28;20032;-65
2023/12/20 08:47:32;;;;;;;14.65;13.95;;;;;;;;;;5065632;28;20106;-63
2023/12/20 08:49:59;;;;;;;14.13;13.48;;;;;;;;;;5061608;28;20120;-65
2023/12/20 08:52:26;;;;;;;13.65;13.05;;;;;;;;;;5064884;28;20117;-65
2023/12/20 08:54:53;;;;;;;13.45;12.85;;;;;;;;;;5061272;28;20021;-63
2023/12/20 08:57:20;;;;;;;15.10;14.40;;;;;;;;;;5067725;28;20863;-64
2023/12/20 08:59:45;;;;;;;14.30;13.60;;;;;;;;;;5062660;28;20036;-63
2023/12/20 09:02:11;;;;;;;13.80;13.20;;;;;;;;;;5068357;28;20020;-64
2023/12/20 09:04:36;;;;;;;13.75;13.15;;;;;;;;;;5064787;28;20037;-63
2023/12/20 09:07:02;;;;;;;14.18;13.48;;;;;;;;;;5065313;28;20032;-64
2023/12/20 09:09:27;;;;;;;13.32;12.73;;;;;;;;;;5068626;28;20183;-65
2023/12/20 09:11:52;;;;;;;14.48;13.77;;;;;;;;;;5067836;28;20029;-65
2023/12/20 09:14:18;;;;;;;14.55;13.85;;;;;;;;;;5060169;28;20059;-63
2023/12/20 09:16:43;;;;;;;13.68;13.07;;;;;;;;;;5063223;28;20128;-64
2023/12/20 09:19:08;;;;;;;14.13;13.43;;;;;;;;;;5068027;28;20032;-65
2023/12/20 09:21:34;;;;;;;13.60;13.00;;;;;;;;;;5068134;28;20027;-64
2023/12/20 09:23:59;;;;;;;13.50;12.90;;;;;;;;;;5063331;28;20409;-63
2023/12/20 09:26:25;;;;;;;14.10;13.40;;;;;;;;;;5060358;28;20500;-64
2023/12/20 09:28:50;;;;;;;13.93;13.23;;;;;;;;;;5065305;28;20028;-63
2023/12/20 09:31:16;;;;;;;14.57;13.88;;;;;;;;;;5065182;28;20031;-64
2023/12/20 09:33:41;;;;;;;15.10;14.30;;;;;;;;;;5066146;28;20012;-63
2023/12/20 09:36:08;;;;;;;15.23;14.43;;;;;;;;;;5061748;28;20020;-64
2023/12/20 09:38:33;;;;;;;15.45;14.65;;;;;;;;;;5067625;28;20028;-64
2023/12/20 09:40:59;;;;;;;14.50;13.75;;;;;;;;;;5067103;28;20043;-65
2023/12/20 09:43:25;;;;;;;13.75;13.05;;;;;;;;;;5065266;28;20033;-65
2023/12/20 09:45:52;;;;;;;13.32;12.65;;;;;;;;;;5067407;28;20028;-64
2023/12/20 09:48:19;;;;;;;13.73;13.02;;;;;;;;;;5064272;28;20020;-64
2023/12/20 09:50:45;;;;;;;13.30;12.65;;;;;;;;;;5063355;28;20166;-62
2023/12/20 09:53:14;;;;;;;14.73;13.93;;;;;;;;;;5062449;28;20111;-62
2023/12/20 09:55:40;;;;;;;14.45;13.65;;;;;;;;;;5066128;28;20021;-63
2023/12/20 09:58:08;;;;;;;14.02;13.32;;;;;;;;;;5062163;28;20047;-63
2023/12/20 10:00:33;;;;;;;14.57;13.77;;;;;;;;;;5060886;28;20514;-64
2023/12/20 10:02:59;;;;;;;14.32;13.52;;;;;;;;;;5064973;28;20028;-62
2023/12/20 10:05:28;;;;;;;13.88;13.18;;;;;;;;;;5057494;28;20471;-63
2023/12/20 10:07:54;;;;;;;13.68;12.98;;;;;;;;;;5061066;28;20024;-64
2023/12/20 10:10:19;;;;;;;13.65;12.95;;;;;;;;;;5066577;28;20020;-62
2023/12/20 10:13:05;;;;;;;12.70;12.10;;;;;;;;;;5062151;28;20028;-63
2023/12/20 10:15:31;;;;;;;13.23;12.52;;;;;;;;;;5063368;28;20483;-63
2023/12/20 10:17:57;;;;;;;13.55;12.85;;;;;;;;;;5063577;28;20426;-63
2023/12/20 10:20:22;;;;;;;12.52;11.93;;;;;;;;;;5061433;28;20024;-61
2023/12/20 10:22:48;;;;;;;12.80;12.20;;;;;;;;;;5068087;28;20044;-62
2023/12/20 10:25:14;;;;;;;14.35;13.55;;;;;;;;;;5059008;28;20505;-62
2023/12/20 10:27:39;;;;;;;13.55;12.85;;;;;;;;;;5062297;28;20020;-65
2023/12/20 10:30:05;;;;;;;13.25;12.55;;;;;;;;;;5058100;28;20145;-63
2023/12/20 10:32:31;;;;;;;12.50;11.90;;;;;;;;;;5062896;28;20074;-63
2023/12/20 10:34:56;;;;;;;12.35;11.75;;;;;;;;;;5059005;28;20015;-61
2023/12/20 10:37:22;;;;;;;13.55;12.85;;;;;;;;;;5056936;28;20587;-62
2023/12/20 10:39:51;;;;;;;13.27;12.57;;;;;;;;;;5062812;28;20024;-62
2023/12/20 10:42:20;;;;;;;12.20;11.60;;;;;;;;;;5067120;28;20028;-60
2023/12/20 10:44:46;;;;;;;14.68;13.88;;;;;;;;;;5052059;28;20026;-63
2023/12/20 10:47:13;;;;;;;15.48;14.57;;;;;;;;;;5064137;28;20024;-63
2023/12/20 10:49:39;;;;;;;12.60;12.00;;;;;;;;;;5063657;28;20078;-60
2023/12/20 10:52:05;;;;;;;12.65;12.05;;;;;;;;;;5064992;28;20045;-63
2023/12/20 10:54:31;;;;;;;13.23;12.52;;;;;;;;;;5066780;28;20154;-61
2023/12/20 10:56:57;;;;;;;12.50;11.90;;;;;;;;;;5064812;28;20543;-60
2023/12/20 10:59:23;;;;;;;13.10;12.40;;;;;;;;;;5066291;28;20450;-61
2023/12/20 11:01:50;;;;;;;12.60;12.00;;;;;;;;;;5058334;28;20021;-61
2023/12/20 11:04:17;;;;;;;14.15;13.35;;;;;;;;;;5054640;28;20036;-64
2023/12/20 11:06:47;;;;;;;13.57;12.88;;;;;;;;;;5056426;28;20059;-62
2023/12/20 11:09:27;;;;;;;13.55;12.85;;;;;;;;;;5062928;28;20067;-63
2023/12/20 11:12:01;;;;;;;14.05;13.25;;;;;;;;;;5067585;28;20228;-63
2023/12/20 11:14:47;;;;;;;13.75;13.05;;;;;;;;;;5060742;28;20025;-62
2023/12/20 11:17:14;;;;;;;13.93;13.15;;;;;;;;;;5058286;28;20049;-64
2023/12/20 11:19:57;;;;;;;14.98;14.18;;;;;;;;;;5062838;28;20019;-62
2023/12/20 11:22:27;;;;;;;13.57;12.88;;;;;;;;;;5059380;28;20021;-64
2023/12/20 11:24:53;;;;;;;13.10;12.40;;;;;;;;;;5064154;28;20024;-61
2023/12/20 11:27:19;;;;;;;13.25;12.55;;;;;;;;;;5061386;28;20537;-61
2023/12/20 11:29:58;;;;;;;12.18;11.57;;;;;;;;;;5059976;28;20901;-63
2023/12/20 11:32:29;;;;;;;13.05;12.35;;;;;;;;;;5063553;28;20020;-62
2023/12/20 11:34:58;;;;;;;12.70;12.10;;;;;;;;;;5062267;28;20056;-62
2023/12/20 11:37:35;;;;;;;14.25;13.45;;;;;;;;;;5064153;28;20091;-62
2023/12/20 11:40:02;;;;;;;13.27;12.57;;;;;;;;;;5058498;28;20053;-63
2023/12/20 11:42:27;;;;;;;13.18;12.48;;;;;;;;;;5062605;28;20064;-61
2023/12/20 11:44:53;;;;;;;14.40;13.60;;;;;;;;;;5065703;28;20017;-62
2023/12/20 11:47:19;;;;;;;13.25;12.55;;;;;;;;;;5062194;28;20128;-65
2023/12/20 11:49:46;;;;;;;13.38;12.68;;;;;;;;;;5063413;28;20503;-61
2023/12/20 11:52:12;;;;;;;16.50;15.50;;;;;;;;;;5060118;28;20028;-65
2023/12/20 11:54:37;;;;;;;12.50;11.90;;;;;;;;;;5063876;28;20020;-63
2023/12/20 11:57:03;;;;;;;13.07;12.40;;;;;;;;;;5062994;28;20017;-63
2023/12/20 11:59:31;;;;;;;13.60;12.90;;;;;;;;;;5068529;28;20016;-62
2023/12/20 12:02:00;;;;;;;12.60;12.00;;;;;;;;;;5063752;28;21444;-59
2023/12/20 12:04:26;;;;;;;13.40;12.70;;;;;;;;;;5059245;28;20484;-64
2023/12/20 12:06:51;;;;;;;13.57;12.88;;;;;;;;;;5060611;28;20055;-65
2023/12/20 12:09:16;;;;;;;12.50;11.90;;;;;;;;;;5061855;28;20036;-63
2023/12/20 12:11:43;;;;;;;13.45;12.75;;;;;;;;;;5061642;28;22151;-64
2023/12/20 12:14:08;;;;;;;13.10;12.40;;;;;;;;;;5063613;28;20156;-63
2023/12/20 12:16:34;;;;;;;12.65;12.05;;;;;;;;;;5062199;28;20572;-61
2023/12/20 12:19:00;;;;;;;13.80;13.10;;;;;;;;;;5066036;28;20031;-62
2023/12/20 12:21:25;;;;;;;12.45;11.85;;;;;;;;;;5066599;28;20033;-63
2023/12/20 12:23:51;;;;;;;13.25;12.55;;;;;;;;;;5068371;28;20063;-62
2023/12/20 12:26:16;;;;;;;13.32;12.63;;;;;;;;;;5068027;28;20487;-62
2023/12/20 12:28:42;;;;;;;12.80;12.18;;;;;;;;;;5070930;28;20039;-61
2023/12/20 12:31:08;;;;;;;13.50;12.80;;;;;;;;;;5064302;28;20033;-60
2023/12/20 12:33:33;;;;;;;12.23;11.63;;;;;;;;;;5065090;28;20016;-61
2023/12/20 12:35:59;;;;;;;14.90;14.10;;;;;;;;;;5069149;28;20058;-61
2023/12/20 12:38:25;;;;;;;12.25;11.65;;;;;;;;;;5067792;28;20024;-62
2023/12/20 12:40:50;;;;;;;12.05;11.45;;;;;;;;;;5070578;28;20027;-62
2023/12/20 12:43:16;;;;;;;12.70;12.10;;;;;;;;;;5072094;28;20536;-62
2023/12/20 12:45:41;;;;;;;13.75;13.05;;;;;;;;;;5068365;28;20028;-62
2023/12/20 12:48:07;;;;;;;13.55;12.85;;;;;;;;;;5069736;28;20032;-61
2023/12/20 12:50:32;;;;;;;13.32;12.63;;;;;;;;;;5070503;28;20103;-61
2023/12/20 12:52:57;;;;;;;13.70;13.00;;;;;;;;;;5072966;28;20044;-61
2023/12/20 12:55:23;;;;;;;13.00;12.30;;;;;;;;;;5073773;28;20410;-60
2023/12/20 12:57:48;;;;;;;13.10;12.40;;;;;;;;;;5071769;28;20058;-61
2023/12/20 13:00:14;;;;;;;12.75;12.15;;;;;;;;;;5067314;28;20059;-62
2023/12/20 13:02:44;;;;;;;15.10;14.20;;;;;;;;;;5065663;28;20020;-61
2023/12/20 13:05:09;;;;;;;13.38;12.68;;;;;;;;;;5062334;28;20052;-62
2023/12/20 13:07:35;;;;;;;13.38;12.68;;;;;;;;;;5066369;28;20569;-62
2023/12/20 13:10:00;;;;;;;12.77;12.18;;;;;;;;;;5062417;28;20036;-62
2023/12/20 13:12:26;;;;;;;13.63;12.93;;;;;;;;;;5065850;28;20025;-61
2023/12/20 13:14:51;;;;;;;14.20;13.40;;;;;;;;;;5060373;28;20483;-63
2023/12/20 13:17:16;;;;;;;14.07;13.27;;;;;;;;;;5067224;28;20060;-63
2023/12/20 13:19:42;;;;;;;13.60;12.90;;;;;;;;;;5068795;28;20448;-62
2023/12/20 13:22:07;;;;;;;14.30;13.50;;;;;;;;;;5060538;28;20029;-63
2023/12/20 13:24:33;;;;;;;14.65;13.80;;;;;;;;;;5067000;28;20032;-62
2023/12/20 13:26:58;;;;;;;14.45;13.65;;;;;;;;;;5064260;28;20028;-62
2023/12/20 13:29:24;;;;;;;13.20;12.50;;;;;;;;;;5063543;28;20016;-61
2023/12/20 13:31:49;;;;;;;13.57;12.88;;;;;;;;;;5060752;28;20043;-62
2023/12/20 13:34:16;;;;;;;13.85;13.07;;;;;;;;;;5063117;28;20024;-61
2023/12/20 13:36:43;;;;;;;12.68;12.00;;;;;;;;;;5062500;28;20401;-64
2023/12/20 13:39:08;;;;;;;13.10;12.40;;;;;;;;;;5065359;28;20476;-63
2023/12/20 13:41:33;;;;;;;13.43;12.73;;;;;;;;;;5065283;28;20035;-62
2023/12/20 13:43:58;;;;;;;13.98;13.18;;;;;;;;;;5067126;28;20036;-62
2023/12/20 13:46:24;;;;;;;13.55;12.85;;;;;;;;;;5067752;28;20028;-63
2023/12/20 13:48:49;;;;;;;13.50;12.80;;;;;;;;;;5067022;28;20458;-63
2023/12/20 13:51:15;;;;;;;13.32;12.63;;;;;;;;;;5072115;28;20032;-65
2023/12/20 13:53:40;;;;;;;13.88;13.10;;;;;;;;;;5062192;28;20021;-63
2023/12/20 13:56:06;;;;;;;13.18;12.48;;;;;;;;;;5064211;28;20206;-63
2023/12/20 13:58:31;;;;;;;14.00;13.20;;;;;;;;;;5060754;28;20055;-65
2023/12/20 14:00:56;;;;;;;13.90;13.10;;;;;;;;;;5063510;28;20039;-64
2023/12/20 14:03:22;;;;;;;13.30;12.60;;;;;;;;;;5064602;28;20426;-64
2023/12/20 14:05:47;;;;;;;13.52;12.82;;;;;;;;;;5062869;28;20082;-62
2023/12/20 14:08:12;;;;;;;13.65;12.90;;;;;;;;;;5063722;28;20033;-65